Time;durP1;ratioP1;P1;durP2;ratioP2;P2;SDS_P1;SDS_P2;PMS_P1;PMS_P2;Temp;Humidity;BMP_temperature;BMP_pressure;BME280_temperature;BME280_humidity;BME280_pressure;Samples;Min_cycle;Max_cycle;Signal;HPM_P1;HPM_P2
2022/01/28 00:00:13;;;;;;;3.40;0.70;;;;;;;4.19;81.21;99836.03;105712;1270;22572;-62
2022/01/28 00:03:09;;;;;;;9.20;0.90;;;;;;;4.12;81.50;99830.66;105789;1271;25905;-61
2022/01/28 00:05:42;;;;;;;4.70;0.80;;;;;;;4.08;81.76;99834.59;105772;1271;22557;-60
2022/01/28 00:08:13;;;;;;;4.50;0.60;;;;;;;4.05;81.93;99845.15;105775;1270;23025;-62
2022/01/28 00:10:45;;;;;;;5.40;0.60;;;;;;;4.03;82.45;99843.33;105838;1271;22553;-62
2022/01/28 00:13:23;;;;;;;7.00;0.60;;;;;;;3.98;82.70;99839.57;106087;1270;22716;-62
2022/01/28 00:38:30;;;;;;;4.90;0.60;;;;;;;3.71;83.73;99804.92;105702;1271;25879;-63
2022/01/28 00:41:01;;;;;;;6.90;0.70;;;;;;;3.71;83.41;99811.40;105749;1270;25321;-61
2022/01/28 00:43:33;;;;;;;6.70;0.70;;;;;;;3.73;83.43;99810.23;105696;1271;22706;-62
2022/01/28 00:46:05;;;;;;;6.90;0.80;;;;;;;3.74;83.25;99826.90;105922;1270;24428;-61
2022/01/28 00:48:37;;;;;;;6.20;0.80;;;;;;;3.75;83.27;99850.54;105807;1270;25364;-60
2022/01/28 00:51:10;;;;;;;6.70;0.80;;;;;;;3.74;83.84;99856.11;105639;1272;22536;-64
2022/01/28 00:53:41;;;;;;;2.40;0.40;;;;;;;3.67;84.07;99853.16;105881;1270;23087;-63
2022/01/28 00:56:13;;;;;;;2.40;0.50;;;;;;;3.56;84.24;99848.77;105859;1270;24432;-62
2022/01/28 00:58:45;;;;;;;4.90;0.60;;;;;;;3.43;84.23;99848.77;105871;1270;22555;-62
2022/01/28 01:01:17;;;;;;;2.70;0.40;;;;;;;3.29;84.20;99828.70;105789;1271;22612;-62
2022/01/28 01:03:49;;;;;;;5.30;0.60;;;;;;;3.18;84.29;99814.94;105841;1270;25453;-62
2022/01/28 01:06:23;;;;;;;3.70;0.50;;;;;;;3.08;84.03;99810.27;105684;1270;22554;-61
2022/01/28 01:08:55;;;;;;;5.60;0.50;;;;;;;2.98;83.70;99818.42;105975;1270;22535;-61
2022/01/28 01:11:28;;;;;;;6.80;0.70;;;;;;;2.90;83.66;99825.66;106125;1270;22567;-62
2022/01/28 01:14:00;;;;;;;4.80;0.50;;;;;;;2.83;83.47;99822.59;105874;1270;22540;-61
2022/01/28 01:16:41;;;;;;;6.10;1.00;;;;;;;2.76;83.38;99822.75;105771;1270;24377;-60
2022/01/28 01:19:20;;;;;;;10.30;0.60;;;;;;;2.71;83.48;99824.48;105645;1271;22554;-62
2022/01/28 01:21:56;;;;;;;8.20;0.70;;;;;;;2.68;83.61;99825.59;105808;1270;22697;-62
2022/01/28 01:24:35;;;;;;;7.60;0.60;;;;;;;2.66;83.73;99841.06;105709;1270;22697;-60
2022/01/28 01:27:08;;;;;;;4.60;0.20;;;;;;;2.68;83.37;99843.40;106013;1270;24299;-62
2022/01/28 01:29:43;;;;;;;8.80;0.40;;;;;;;2.74;83.42;99839.11;105762;1271;25365;-61
2022/01/28 01:32:17;;;;;;;10.30;0.80;;;;;;;2.78;83.66;99839.09;105921;1270;22600;-63
2022/01/28 01:34:49;;;;;;;4.70;0.30;;;;;;;2.79;83.68;99837.48;105716;1271;22555;-62
2022/01/28 01:37:22;;;;;;;13.30;0.80;;;;;;;2.81;83.82;99827.03;105679;1271;25435;-62
2022/01/28 01:39:54;;;;;;;5.50;0.80;;;;;;;2.81;83.85;99841.70;105962;1270;24242;-60
2022/01/28 01:42:33;;;;;;;5.70;0.50;;;;;;;2.81;83.84;99832.24;105751;1270;22554;-62
2022/01/28 01:45:42;;;;;;;4.00;0.40;;;;;;;2.83;83.79;99832.33;105846;1270;22538;-62
2022/01/28 01:53:47;;;;;;;5.90;0.60;;;;;;;2.94;83.65;99824.46;105749;1271;22562;-61
2022/01/28 01:56:19;;;;;;;5.20;0.60;;;;;;;2.97;83.56;99817.99;105505;1271;261444;-62
2022/01/28 01:58:51;;;;;;;9.10;0.60;;;;;;;3.01;83.37;99808.48;105700;1271;22624;-62
2022/01/28 02:01:23;;;;;;;8.40;0.70;;;;;;;3.07;83.07;99808.08;105832;1270;23333;-62
2022/01/28 02:03:55;;;;;;;6.90;0.90;;;;;;;3.12;83.07;99799.80;105781;1271;22576;-61
2022/01/28 02:06:29;;;;;;;5.20;0.90;;;;;;;3.16;82.97;99800.00;105732;1270;22575;-62
2022/01/28 02:09:00;;;;;;;6.10;0.40;;;;;;;3.19;82.79;99801.16;105753;1271;23196;-61
2022/01/28 02:11:32;;;;;;;6.90;0.70;;;;;;;3.22;82.15;99801.70;105835;1270;22557;-63
2022/01/28 02:14:04;;;;;;;6.10;0.40;;;;;;;3.28;82.03;99797.67;105768;1271;24238;-62
2022/01/28 02:16:36;;;;;;;8.40;0.60;;;;;;;3.33;81.51;99800.54;105773;1271;24429;-62
2022/01/28 02:19:08;;;;;;;6.30;0.50;;;;;;;3.37;81.65;99798.66;105846;1270;22610;-62
2022/01/28 02:21:45;;;;;;;8.80;0.80;;;;;;;3.42;80.76;99803.65;105980;1270;22873;-62
2022/01/28 02:24:22;;;;;;;7.80;0.70;;;;;;;3.48;80.79;99800.30;105750;1270;24467;-62
2022/01/28 02:26:54;;;;;;;4.60;0.40;;;;;;;3.51;80.44;99800.91;105543;1271;25289;-61
2022/01/28 02:29:31;;;;;;;12.20;1.10;;;;;;;3.53;80.80;99801.41;105841;1270;25493;-62
2022/01/28 02:32:05;;;;;;;8.80;0.70;;;;;;;3.54;80.69;99799.23;105635;1271;22626;-62
2022/01/28 02:34:40;;;;;;;5.50;0.60;;;;;;;3.54;80.70;99803.33;105825;1270;24237;-62
2022/01/28 02:37:12;;;;;;;7.60;0.50;;;;;;;3.54;80.78;99806.42;105806;1271;22529;-62
2022/01/28 02:39:44;;;;;;;7.30;0.60;;;;;;;3.53;80.87;99797.39;106031;1271;24254;-61
2022/01/28 02:42:21;;;;;;;10.00;0.90;;;;;;;3.52;81.04;99802.84;105811;1271;22559;-61
2022/01/28 02:44:55;;;;;;;8.40;0.90;;;;;;;3.50;80.91;99799.70;105632;1271;22623;-63
2022/01/28 02:47:34;;;;;;;8.30;0.70;;;;;;;3.49;80.98;99806.75;105996;1270;24234;-63
2022/01/28 02:50:08;;;;;;;4.80;0.50;;;;;;;3.47;81.19;99802.98;105819;1271;24390;-61
2022/01/28 02:52:50;;;;;;;6.10;0.60;;;;;;;3.45;81.50;99810.72;105904;1271;22704;-61
2022/01/28 02:55:22;;;;;;;5.10;0.40;;;;;;;3.42;81.50;99808.69;105705;1270;24300;-63
2022/01/28 02:58:04;;;;;;;4.60;0.50;;;;;;;3.40;81.86;99813.26;105704;1271;24262;-63
2022/01/28 03:00:36;;;;;;;7.40;0.60;;;;;;;3.35;82.14;99817.20;105736;1271;24410;-62
2022/01/28 03:03:08;;;;;;;6.50;0.50;;;;;;;3.33;82.22;99818.20;105797;1270;25893;-62
2022/01/28 03:05:40;;;;;;;7.50;0.70;;;;;;;3.29;82.33;99819.08;105853;1270;25528;-62
2022/01/28 03:08:13;;;;;;;10.20;0.80;;;;;;;3.28;82.45;99828.59;105786;1271;22712;-62
2022/01/28 03:11:05;;;;;;;4.20;1.00;;;;;;;3.24;82.54;99834.98;105895;1270;24439;-62
2022/01/28 03:13:56;;;;;;;10.30;0.60;;;;;;;3.19;83.07;99830.95;105950;1270;22548;-63
2022/01/28 03:16:32;;;;;;;11.00;1.00;;;;;;;3.13;83.39;99839.34;105853;1270;24316;-62
2022/01/28 03:19:15;;;;;;;10.60;0.70;;;;;;;3.09;83.48;99839.00;105978;1270;22541;-63
2022/01/28 03:21:54;;;;;;;14.40;1.50;;;;;;;3.05;83.89;99842.73;106029;1271;22567;-63
2022/01/28 03:24:27;;;;;;;11.20;1.20;;;;;;;3.00;84.07;99851.00;105847;1271;22559;-62
2022/01/28 03:27:04;;;;;;;10.60;0.80;;;;;;;2.96;84.22;99848.89;105874;1271;24242;-62
2022/01/28 03:29:36;;;;;;;9.80;0.70;;;;;;;2.92;84.57;99854.05;105797;1270;22561;-63
2022/01/28 03:32:09;;;;;;;6.70;0.80;;;;;;;2.88;84.58;99857.70;105800;1270;25548;-63
2022/01/28 03:34:41;;;;;;;12.80;0.90;;;;;;;2.85;84.76;99858.36;105836;1270;22695;-62
2022/01/28 03:37:15;;;;;;;13.90;1.20;;;;;;;2.82;84.97;99856.46;105844;1271;25497;-63
2022/01/28 03:39:47;;;;;;;11.50;0.80;;;;;;;2.80;84.99;99864.23;105750;1270;22538;-62
2022/01/28 03:42:19;;;;;;;6.80;0.50;;;;;;;2.80;85.37;99862.91;105972;1271;25376;-62
2022/01/28 03:44:51;;;;;;;11.60;0.70;;;;;;;2.79;85.36;99857.27;105853;1271;22541;-62
2022/01/28 03:47:22;;;;;;;10.50;0.80;;;;;;;2.79;85.31;99859.55;105681;1271;22625;-62
2022/01/28 03:49:54;;;;;;;13.70;1.20;;;;;;;2.80;85.39;99860.45;105854;1271;22550;-62
2022/01/28 03:52:26;;;;;;;5.30;0.80;;;;;;;2.83;85.22;99863.85;105785;1271;24366;-62
2022/01/28 03:54:58;;;;;;;9.20;1.10;;;;;;;2.87;85.07;99872.46;105822;1271;22589;-62
2022/01/28 03:57:29;;;;;;;6.10;0.50;;;;;;;2.90;85.00;99872.38;105618;1270;24360;-61
2022/01/28 04:00:01;;;;;;;14.50;1.20;;;;;;;2.93;84.84;99876.95;106016;1270;24253;-62
2022/01/28 04:02:36;;;;;;;7.90;0.50;;;;;;;2.96;84.64;99879.77;105847;1271;22553;-62
2022/01/28 04:13:32;;;;;;;7.70;0.80;;;;;;;3.06;84.31;99894.23;105413;1276;22565;-62
2022/01/28 04:16:27;;;;;;;11.30;1.10;;;;;;;3.08;84.20;99904.59;105669;1276;23217;-62
2022/01/28 04:19:01;;;;;;;15.30;0.80;;;;;;;3.08;84.16;99903.30;105429;1276;25387;-61
2022/01/28 04:21:32;;;;;;;9.30;0.80;;;;;;;3.09;83.97;99900.85;105252;1276;25403;-62
2022/01/28 04:24:05;;;;;;;7.20;0.50;;;;;;;3.09;83.85;99896.98;105429;1276;24769;-62
2022/01/28 04:26:37;;;;;;;12.90;0.60;;;;;;;3.10;83.92;99895.23;105572;1276;22678;-62
2022/01/28 04:29:11;;;;;;;6.70;0.70;;;;;;;3.08;83.93;99898.21;105470;1276;22574;-62
2022/01/28 04:31:46;;;;;;;7.80;0.70;;;;;;;3.07;83.93;99900.74;105356;1277;24426;-61
2022/01/28 04:34:21;;;;;;;10.40;1.10;;;;;;;3.07;83.85;99905.95;105362;1276;26144;-62
2022/01/28 04:37:02;;;;;;;8.90;0.80;;;;;;;3.05;83.90;99908.44;105543;1276;22567;-61
2022/01/28 04:39:40;;;;;;;10.30;0.80;;;;;;;3.03;83.89;99913.70;105405;1276;22545;-61
2022/01/28 04:42:24;;;;;;;9.80;0.80;;;;;;;3.01;83.82;99915.58;105345;1276;22925;-61
2022/01/28 04:45:02;;;;;;;15.90;1.20;;;;;;;2.99;83.80;99914.35;105706;1276;24387;-62
2022/01/28 04:47:41;;;;;;;13.00;1.30;;;;;;;2.99;83.75;99917.52;106695;1271;22544;-62
2022/01/28 04:50:22;;;;;;;7.30;0.70;;;;;;;2.99;83.68;99919.10;106604;1271;25388;-62
2022/01/28 04:53:11;;;;;;;;;;;;;;;3.00;83.59;99927.41;106642;1271;25898;-62
2022/01/28 04:56:06;;;;;;;6.80;0.70;;;;;;;3.00;83.38;99918.13;106775;1271;22478;-62
2022/01/28 04:58:52;;;;;;;12.40;1.40;;;;;;;3.03;83.33;99917.64;106734;1271;24166;-62
2022/01/28 05:04:26;;;;;;;14.10;1.40;;;;;;;3.06;83.28;99930.11;106261;1276;24724;-62
2022/01/28 05:16:11;;;;;;;13.20;1.20;;;;;;;3.12;82.52;99949.08;106019;1281;22625;-62
2022/01/28 05:24:52;;;;;;;4.80;0.60;;;;;;;3.13;82.25;99974.64;105961;1281;22508;-62
2022/01/28 05:27:22;;;;;;;13.80;1.30;;;;;;;3.13;82.23;99979.53;105933;1281;22599;-61
2022/01/28 05:29:53;;;;;;;11.20;1.00;;;;;;;3.12;82.19;99978.14;106053;1281;22644;-62
2022/01/28 05:32:24;;;;;;;21.50;1.70;;;;;;;3.12;82.24;99985.06;106077;1281;25283;-62
2022/01/28 05:34:56;;;;;;;18.50;1.80;;;;;;;3.12;82.29;99992.32;105991;1281;22572;-62
2022/01/28 05:37:27;;;;;;;12.10;1.20;;;;;;;3.12;82.38;99996.98;106021;1281;22721;-62
2022/01/28 05:39:58;;;;;;;12.80;1.00;;;;;;;3.11;82.23;99995.66;105975;1281;23143;-62
2022/01/28 05:42:29;;;;;;;12.50;0.80;;;;;;;3.12;82.26;100003.29;106152;1277;23798;-62
2022/01/28 05:45:00;;;;;;;9.50;1.00;;;;;;;3.12;82.28;100000.20;106204;1276;23892;-60
2022/01/28 05:47:35;;;;;;;9.90;0.80;;;;;;;3.11;82.34;100000.08;106843;1271;24239;-60
2022/01/28 05:50:08;;;;;;;13.30;1.30;;;;;;;3.12;82.23;100003.84;106575;1271;22555;-60
2022/01/28 05:52:39;;;;;;;9.30;0.90;;;;;;;3.11;82.27;100004.96;106859;1271;22563;-64
2022/01/28 05:55:11;;;;;;;10.60;0.80;;;;;;;3.11;82.08;100015.35;106992;1271;24243;-62
2022/01/28 05:57:46;;;;;;;12.00;0.80;;;;;;;3.13;82.18;100026.19;106580;1270;22600;-60
2022/01/28 06:00:20;;;;;;;9.70;1.60;;;;;;;3.13;82.14;100032.48;106624;1271;22575;-59
2022/01/28 06:02:51;;;;;;;12.00;1.10;;;;;;;3.14;82.16;100031.07;106622;1271;26521;-60
2022/01/28 06:05:22;;;;;;;10.30;1.00;;;;;;;3.15;81.94;100026.39;106563;1271;25300;-62
2022/01/28 06:07:53;;;;;;;11.90;1.10;;;;;;;3.16;81.75;100032.41;106520;1271;25374;-62
2022/01/28 06:10:24;;;;;;;15.60;1.00;;;;;;;3.18;81.58;100031.82;106465;1271;22568;-62
2022/01/28 06:12:56;;;;;;;10.30;1.10;;;;;;;3.20;81.40;100039.58;106760;1271;22579;-62
2022/01/28 06:15:27;;;;;;;16.00;1.10;;;;;;;3.22;81.10;100053.14;106739;1271;25375;-63
2022/01/28 06:17:58;;;;;;;9.80;0.80;;;;;;;3.24;81.25;100051.90;106572;1271;22540;-63
2022/01/28 06:20:29;;;;;;;9.00;0.90;;;;;;;3.25;81.21;100049.98;106552;1271;25263;-63
2022/01/28 06:23:01;;;;;;;15.40;1.00;;;;;;;3.26;81.10;100055.23;106448;1271;25402;-63
2022/01/28 06:25:32;;;;;;;12.80;1.00;;;;;;;3.28;80.75;100056.83;106303;1271;22587;-63
2022/01/28 06:28:04;;;;;;;17.40;1.50;;;;;;;3.31;80.53;100058.20;106903;1271;22691;-64
2022/01/28 06:30:35;;;;;;;11.40;1.10;;;;;;;3.33;80.11;100057.27;106684;1271;26363;-63
2022/01/28 06:33:06;;;;;;;9.60;1.20;;;;;;;3.36;80.31;100057.36;106433;1271;22613;-63
2022/01/28 06:35:37;;;;;;;9.50;1.00;;;;;;;3.37;80.23;100057.48;106384;1271;22560;-63
2022/01/28 06:38:08;;;;;;;13.50;1.40;;;;;;;3.39;80.02;100064.53;106531;1271;22626;-63
2022/01/28 06:40:40;;;;;;;12.30;1.30;;;;;;;3.42;79.65;100063.74;106557;1271;23037;-62
2022/01/28 06:43:13;;;;;;;15.50;2.40;;;;;;;3.44;79.61;100066.61;106580;1271;23000;-63
2022/01/28 06:45:44;;;;;;;26.10;2.00;;;;;;;3.47;79.66;100075.90;106701;1271;22543;-63
2022/01/28 06:48:18;;;;;;;10.50;0.80;;;;;;;3.49;79.34;100079.88;106548;1271;22545;-62
2022/01/28 06:50:49;;;;;;;16.70;1.70;;;;;;;3.51;78.88;100079.89;106528;1271;25539;-63
2022/01/28 06:53:21;;;;;;;12.80;1.00;;;;;;;3.53;78.93;100078.02;106395;1271;22530;-63
2022/01/28 06:55:52;;;;;;;12.30;1.10;;;;;;;3.56;78.72;100086.38;106303;1271;23849;-63
2022/01/28 06:58:23;;;;;;;16.80;1.60;;;;;;;3.58;78.43;100085.45;106618;1271;25262;-63
2022/01/28 07:00:54;;;;;;;14.50;1.50;;;;;;;3.60;78.73;100090.70;106648;1271;25883;-60
2022/01/28 07:03:26;;;;;;;12.50;1.40;;;;;;;3.60;78.74;100094.79;106795;1271;23023;-62
2022/01/28 07:05:57;;;;;;;10.10;1.20;;;;;;;3.61;78.62;100096.81;106770;1271;25255;-62
2022/01/28 07:08:28;;;;;;;9.70;1.30;;;;;;;3.61;78.67;100101.78;106418;1271;22534;-62
2022/01/28 07:11:01;;;;;;;9.50;1.70;;;;;;;3.61;78.53;100105.73;106437;1271;24239;-62
2022/01/28 07:13:32;;;;;;;8.80;1.20;;;;;;;3.62;78.32;100112.27;106566;1271;25371;-62
2022/01/28 07:16:03;;;;;;;5.80;1.20;;;;;;;3.61;78.60;100107.84;106513;1271;22613;-62
2022/01/28 07:18:37;;;;;;;10.60;1.10;;;;;;;3.60;78.60;100114.02;106578;1271;22550;-62
2022/01/28 07:21:08;;;;;;;8.70;0.80;;;;;;;3.59;78.52;100115.39;106423;1271;22566;-62
2022/01/28 07:23:39;;;;;;;10.20;1.30;;;;;;;3.60;78.41;100116.25;106419;1271;22570;-62
2022/01/28 07:26:10;;;;;;;14.70;1.20;;;;;;;3.60;78.66;100119.96;106463;1271;22554;-62
2022/01/28 07:28:42;;;;;;;11.70;0.90;;;;;;;3.59;78.69;100121.23;106381;1271;22574;-62
2022/01/28 07:31:15;;;;;;;14.90;1.60;;;;;;;3.59;78.67;100124.39;106388;1271;22506;-62
2022/01/28 07:33:46;;;;;;;11.40;1.10;;;;;;;3.58;78.54;100128.27;106423;1271;24285;-61
2022/01/28 07:36:17;;;;;;;17.00;1.40;;;;;;;3.58;78.77;100136.16;106323;1271;22738;-62
2022/01/28 07:38:49;;;;;;;16.30;1.20;;;;;;;3.59;78.27;100139.77;106546;1271;23994;-62
2022/01/28 07:41:21;;;;;;;8.30;1.00;;;;;;;3.60;78.61;100130.52;106446;1271;22864;-62
2022/01/28 07:43:52;;;;;;;14.10;1.30;;;;;;;3.60;78.66;100137.69;106532;1271;23816;-62
2022/01/28 07:46:23;;;;;;;12.20;1.10;;;;;;;3.60;78.44;100151.98;106615;1271;22669;-62
2022/01/28 07:48:54;;;;;;;14.80;1.40;;;;;;;3.60;78.79;100150.33;106544;1271;22499;-63
2022/01/28 07:51:26;;;;;;;10.20;0.90;;;;;;;3.61;78.71;100154.39;106677;1271;22548;-62
2022/01/28 07:53:57;;;;;;;10.90;0.90;;;;;;;3.61;78.40;100156.20;106409;1271;25529;-62
2022/01/28 07:56:28;;;;;;;20.30;1.40;;;;;;;3.62;78.42;100160.66;106908;1271;22485;-62
2022/01/28 07:59:00;;;;;;;13.70;1.70;;;;;;;3.63;78.48;100169.86;106401;1271;23977;-62
2022/01/28 08:01:31;;;;;;;15.20;1.60;;;;;;;3.64;78.32;100170.14;106572;1270;22485;-62
2022/01/28 08:04:02;;;;;;;11.90;1.00;;;;;;;3.66;78.24;100166.56;106542;1271;25840;-63
2022/01/28 08:06:34;;;;;;;11.90;1.10;;;;;;;3.67;77.99;100178.52;106650;1270;22598;-62
2022/01/28 08:09:06;;;;;;;13.30;1.20;;;;;;;3.68;78.29;100180.54;106591;1271;22535;-62
2022/01/28 08:11:38;;;;;;;12.90;1.60;;;;;;;3.69;78.17;100186.92;106720;1271;25437;-62
2022/01/28 08:14:10;;;;;;;13.20;1.00;;;;;;;3.69;77.79;100199.77;106573;1271;23231;-63
2022/01/28 08:16:45;;;;;;;13.80;0.90;;;;;;;3.70;78.14;100201.41;106290;1271;22538;-63
2022/01/28 08:19:16;;;;;;;12.10;1.40;;;;;;;3.70;78.24;100207.17;106387;1271;22556;-63
2022/01/28 08:21:49;;;;;;;14.10;1.50;;;;;;;3.70;78.26;100220.33;106297;1271;25392;-63
2022/01/28 08:24:21;;;;;;;16.80;2.30;;;;;;;3.69;78.56;100224.70;106220;1271;22548;-63
2022/01/28 08:26:53;;;;;;;14.00;1.30;;;;;;;3.67;78.78;100226.95;106267;1271;22483;-62
2022/01/28 08:29:24;;;;;;;17.80;1.70;;;;;;;3.63;78.88;100232.73;106498;1271;25395;-63
2022/01/28 08:31:56;;;;;;;10.90;1.50;;;;;;;3.60;79.04;100242.50;106391;1271;24427;-63
2022/01/28 08:34:27;;;;;;;13.90;1.20;;;;;;;3.59;79.13;100241.13;106444;1271;25982;-63
2022/01/28 08:37:03;;;;;;;8.30;1.00;;;;;;;3.58;79.14;100248.41;106236;1271;22665;-63
2022/01/28 08:39:35;;;;;;;10.40;1.00;;;;;;;3.56;79.26;100246.08;106228;1271;22578;-62
2022/01/28 08:42:09;;;;;;;12.40;1.20;;;;;;;3.55;79.33;100259.58;105898;1273;25934;-63
2022/01/28 08:44:41;;;;;;;10.10;0.90;;;;;;;3.54;79.31;100266.23;106678;1271;24891;-63
2022/01/28 08:47:13;;;;;;;16.90;1.00;;;;;;;3.53;79.27;100275.56;106424;1271;24220;-63
2022/01/28 08:49:44;;;;;;;12.10;1.10;;;;;;;3.53;79.33;100277.30;106226;1271;22770;-63
2022/01/28 08:52:15;;;;;;;10.30;1.40;;;;;;;3.53;79.30;100287.39;107667;1271;23329;-62
2022/01/28 08:54:48;;;;;;;13.70;1.10;;;;;;;3.53;79.41;100294.96;105968;1271;24266;-61
2022/01/28 08:57:20;;;;;;;12.80;1.20;;;;;;;3.54;79.35;100301.02;106258;1271;22560;-63
2022/01/28 08:59:51;;;;;;;18.60;1.40;;;;;;;3.55;79.66;100304.70;106222;1271;24035;-63
2022/01/28 09:02:23;;;;;;;11.90;1.10;;;;;;;3.56;79.49;100312.09;106085;1271;25385;-63
2022/01/28 09:04:54;;;;;;;14.80;1.60;;;;;;;3.57;79.68;100311.68;106183;1271;24253;-62
2022/01/28 09:07:25;;;;;;;12.70;1.40;;;;;;;3.57;79.60;100326.88;106403;1270;22552;-62
2022/01/28 09:10:03;;;;;;;14.50;1.10;;;;;;;3.58;79.56;100325.86;106110;1271;25419;-63
2022/01/28 09:12:39;;;;;;;19.10;2.00;;;;;;;3.57;79.53;100335.32;106355;1270;22557;-63
2022/01/28 09:15:12;;;;;;;10.90;0.90;;;;;;;3.57;79.63;100338.33;106182;1270;22560;-61
2022/01/28 09:17:44;;;;;;;14.70;1.60;;;;;;;3.58;79.64;100347.07;106505;1271;25331;-62
2022/01/28 09:20:15;;;;;;;16.50;1.00;;;;;;;3.57;79.77;100354.66;106274;1270;25629;-62
2022/01/28 09:22:47;;;;;;;15.10;1.00;;;;;;;3.58;79.51;100357.16;106556;1270;25371;-60
2022/01/28 09:25:18;;;;;;;10.10;0.80;;;;;;;3.59;79.45;100354.91;106299;1271;22594;-62
2022/01/28 09:27:49;;;;;;;16.30;1.00;;;;;;;3.60;79.63;100361.20;106633;1271;25429;-61
2022/01/28 09:30:20;;;;;;;7.90;1.20;;;;;;;3.61;79.48;100366.86;106180;1270;25410;-64
2022/01/28 09:32:51;;;;;;;10.70;0.90;;;;;;;3.62;79.47;100365.65;106299;1271;22559;-64
2022/01/28 09:35:22;;;;;;;11.80;1.10;;;;;;;3.63;79.58;100377.45;106093;1271;22538;-63
2022/01/28 09:37:54;;;;;;;14.50;1.10;;;;;;;3.64;79.56;100380.82;105937;1271;25454;-64
2022/01/28 09:40:25;;;;;;;10.60;1.30;;;;;;;3.65;79.71;100379.22;106178;1270;22847;-63
2022/01/28 09:42:59;;;;;;;21.30;1.60;;;;;;;3.67;79.78;100384.48;106384;1271;22583;-63
2022/01/28 09:45:30;;;;;;;16.90;1.50;;;;;;;3.68;79.91;100388.00;106298;1271;25505;-67
2022/01/28 09:48:02;;;;;;;14.20;1.20;;;;;;;3.69;79.94;100390.96;106098;1270;22708;-63
2022/01/28 09:50:35;;;;;;;15.40;1.40;;;;;;;3.71;79.81;100390.38;106034;1270;22598;-64
2022/01/28 09:53:06;;;;;;;13.40;1.40;;;;;;;3.74;79.79;100394.04;106139;1271;22729;-65
2022/01/28 09:55:38;;;;;;;8.60;1.10;;;;;;;3.76;79.88;100392.96;105955;1271;26732;-65
2022/01/28 09:58:09;;;;;;;12.40;1.30;;;;;;;3.76;80.02;100401.54;106047;1271;22860;-64
2022/01/28 10:00:41;;;;;;;13.70;1.60;;;;;;;3.77;80.03;100403.41;108181;1271;24130;-64
2022/01/28 10:03:14;;;;;;;12.90;1.00;;;;;;;3.77;80.02;100412.31;108639;1269;22555;-65
2022/01/28 10:05:49;;;;;;;13.80;1.00;;;;;;;3.79;80.26;100407.70;106034;1271;25705;-62
2022/01/28 10:08:24;;;;;;;15.30;1.30;;;;;;;3.82;80.05;100416.63;106024;1271;22554;-62
2022/01/28 10:11:02;;;;;;;7.80;0.80;;;;;;;3.86;80.44;100422.46;106035;1271;24230;-62
2022/01/28 10:13:39;;;;;;;11.90;1.00;;;;;;;3.89;80.17;100428.25;106126;1270;22549;-62
2022/01/28 10:16:13;;;;;;;10.40;1.00;;;;;;;3.91;80.33;100440.02;106035;1271;22625;-62
2022/01/28 10:18:47;;;;;;;11.60;1.30;;;;;;;3.92;80.35;100443.70;105948;1270;23000;-63
2022/01/28 10:21:25;;;;;;;8.50;0.70;;;;;;;3.91;80.56;100445.23;105985;1271;25591;-62
2022/01/28 10:24:02;;;;;;;12.40;0.90;;;;;;;3.89;80.67;100450.17;106135;1270;22553;-64
2022/01/28 10:26:37;;;;;;;17.10;1.20;;;;;;;3.87;80.91;100454.64;106229;1271;22583;-64
2022/01/28 10:29:12;;;;;;;14.40;1.00;;;;;;;3.89;80.99;100470.05;105997;1270;22582;-63
2022/01/28 10:31:47;;;;;;;16.70;1.00;;;;;;;3.90;80.91;100465.15;106119;1270;22631;-63
2022/01/28 10:34:24;;;;;;;11.00;1.70;;;;;;;3.90;81.29;100476.20;106141;1270;22704;-63
2022/01/28 10:37:16;;;;;;;15.50;1.60;;;;;;;3.89;81.58;100481.59;106003;1271;25395;-63
2022/01/28 10:39:51;;;;;;;13.70;1.00;;;;;;;3.87;81.51;100485.11;106167;1270;22994;-63
2022/01/28 10:42:36;;;;;;;15.40;0.90;;;;;;;3.85;81.70;100490.27;106039;1270;22561;-63
2022/01/28 10:45:11;;;;;;;9.10;1.00;;;;;;;3.83;81.65;100491.17;106051;1270;25557;-64
2022/01/28 10:47:44;;;;;;;10.00;0.80;;;;;;;3.83;81.72;100493.85;105914;1271;24533;-63
2022/01/28 10:50:24;;;;;;;13.10;1.00;;;;;;;3.86;81.68;100490.80;106604;1270;22711;-63
2022/01/28 10:53:10;;;;;;;14.90;2.10;;;;;;;3.92;81.46;100499.58;106146;1271;25390;-63
2022/01/28 10:55:44;;;;;;;12.60;1.30;;;;;;;3.98;81.00;100500.63;105827;1271;22658;-63
2022/01/28 10:58:18;;;;;;;14.20;1.10;;;;;;;4.07;81.37;100502.34;106161;1271;25452;-63
2022/01/28 11:00:53;;;;;;;10.60;1.00;;;;;;;4.19;80.87;100498.98;105818;1271;22541;-62
2022/01/28 11:03:26;;;;;;;14.40;1.00;;;;;;;4.26;80.15;100505.05;105690;1271;22650;-62
2022/01/28 11:05:59;;;;;;;13.60;2.00;;;;;;;4.35;80.49;100505.64;105863;1271;25312;-63
2022/01/28 11:08:34;;;;;;;14.30;2.10;;;;;;;4.43;80.04;100515.48;106165;1270;25272;-63
2022/01/28 11:11:05;;;;;;;18.40;1.50;;;;;;;4.49;79.65;100511.71;106315;1271;25463;-63
2022/01/28 11:13:38;;;;;;;16.70;1.60;;;;;;;4.53;79.61;100518.65;106205;1271;22546;-63
2022/01/28 11:16:09;;;;;;;13.90;1.30;;;;;;;4.56;79.37;100516.67;106077;1271;22559;-63
2022/01/28 11:18:42;;;;;;;17.80;1.90;;;;;;;4.56;79.27;100517.85;106067;1271;26371;-63
2022/01/28 11:21:17;;;;;;;16.90;2.10;;;;;;;4.57;79.32;100517.67;106280;1271;22642;-63
2022/01/28 11:23:55;;;;;;;9.20;1.30;;;;;;;4.57;79.43;100520.93;106230;1271;24186;-63
2022/01/28 11:26:35;;;;;;;21.90;1.80;;;;;;;4.54;78.80;100529.12;106305;1271;24263;-63
2022/01/28 11:29:18;;;;;;;14.40;1.80;;;;;;;4.51;78.69;100525.23;106452;1270;22599;-63
2022/01/28 11:31:51;;;;;;;15.30;1.30;;;;;;;4.50;78.96;100530.73;106378;1270;24272;-63
2022/01/28 11:34:26;;;;;;;15.90;1.50;;;;;;;4.49;78.69;100531.92;106102;1270;22541;-62
2022/01/28 11:36:59;;;;;;;17.40;1.10;;;;;;;4.47;78.08;100542.16;106314;1270;26603;-63
2022/01/28 11:39:36;;;;;;;14.80;1.70;;;;;;;4.46;78.44;100540.14;106076;1271;25842;-62
2022/01/28 11:42:16;;;;;;;11.70;1.40;;;;;;;4.44;78.38;100552.56;106313;1271;22555;-63
2022/01/28 11:44:55;;;;;;;14.40;1.40;;;;;;;4.43;78.46;100544.65;106242;1271;22557;-63
2022/01/28 11:47:29;;;;;;;12.10;1.10;;;;;;;4.41;77.92;100552.01;106258;1271;24331;-63
2022/01/28 11:50:07;;;;;;;15.90;1.80;;;;;;;4.41;78.14;100554.21;106128;1270;22767;-63
2022/01/28 11:52:42;;;;;;;17.00;2.00;;;;;;;4.41;77.88;100556.02;106158;1270;25946;-63
2022/01/28 11:55:34;;;;;;;20.20;1.40;;;;;;;4.41;77.99;100559.51;106328;1271;24330;-63
2022/01/28 11:58:08;;;;;;;16.00;1.30;;;;;;;4.44;77.65;100559.92;106155;1270;22635;-63
2022/01/28 12:00:43;;;;;;;12.10;1.60;;;;;;;4.46;77.40;100557.77;106170;1270;25198;-63
2022/01/28 12:03:20;;;;;;;10.10;1.90;;;;;;;4.48;77.41;100563.55;106479;1271;22652;-63
2022/01/28 12:05:57;;;;;;;18.00;1.60;;;;;;;4.50;77.19;100566.02;106298;1270;25639;-63
2022/01/28 12:08:33;;;;;;;9.30;1.20;;;;;;;4.52;75.97;100578.14;106499;1270;22554;-62
2022/01/28 12:11:07;;;;;;;20.70;2.60;;;;;;;4.54;76.46;100575.58;106081;1271;22695;-63
2022/01/28 12:14:02;;;;;;;24.10;1.90;;;;;;;4.55;76.25;100574.52;106582;1271;22694;-63
2022/01/28 12:16:39;;;;;;;16.00;1.40;;;;;;;4.56;76.29;100577.89;106030;1271;22720;-63
2022/01/28 12:19:19;;;;;;;22.50;1.70;;;;;;;4.55;76.13;100587.39;106445;1271;23874;-63
2022/01/28 12:22:13;;;;;;;11.90;1.40;;;;;;;4.55;76.01;100594.69;106552;1271;22553;-64
2022/01/28 12:24:46;;;;;;;10.30;0.90;;;;;;;4.52;75.67;100593.86;106232;1271;25493;-64
2022/01/28 12:27:21;;;;;;;17.80;2.20;;;;;;;4.51;75.89;100594.44;106075;1271;22675;-63
2022/01/28 12:29:57;;;;;;;17.30;1.90;;;;;;;4.50;75.54;100596.91;106185;1271;22526;-64
2022/01/28 12:32:29;;;;;;;15.00;1.50;;;;;;;4.49;75.46;100605.38;106987;1270;22737;-64
2022/01/28 12:35:03;;;;;;;13.90;1.50;;;;;;;4.47;74.83;100617.75;107763;1270;22555;-64
2022/01/28 12:37:46;;;;;;;19.70;1.30;;;;;;;4.46;74.63;100613.27;106220;1270;25424;-65
2022/01/28 12:40:24;;;;;;;12.20;1.30;;;;;;;4.45;74.16;100611.01;105617;1271;22555;-64
2022/01/28 12:42:56;;;;;;;8.30;1.00;;;;;;;4.45;75.05;100607.61;105895;1270;25960;-61
2022/01/28 12:45:28;;;;;;;15.60;1.20;;;;;;;4.46;74.62;100618.80;106264;1271;24362;-66
2022/01/28 12:48:00;;;;;;;11.00;1.10;;;;;;;4.47;74.28;100612.79;106233;1271;22574;-65
2022/01/28 12:50:33;;;;;;;14.10;1.70;;;;;;;4.47;73.94;100621.25;106242;1270;22560;-66